Buckner, Illinois
Current Conditions -  °F | °C
As of 9:45 AM on Thursday 29 Jan 2015 (Local Time) from KMWA Reporting Station
Overcast Overcast  
Wind Chill: 40°   Ceiling: 2500
Heat Index: 46°   Visibility: 20mi
Dew Point: 36°   Wind: 14mph
Humidity: 66%   Direction: 300°WNW
Pressure: 30.08"   Gusts: 22mph
Location:  37.98°N, 89.02°W
Report Text: KMWA 291545Z 30012G19KT 20SM OVC025 08/02 A3008
Loading
Personal Weather Stations






























Interactive Weather Map New forecast layout! Learn more

10-Day Weather Forecast

Advertisements
Track Severe Weather on mobile